Time;durP1;ratioP1;P1;durP2;ratioP2;P2;SDS_P1;SDS_P2;PMS_P1;PMS_P2;Temp;Humidity;BMP_temperature;BMP_pressure;BME280_temperature;BME280_humidity;BME280_pressure;Samples;Min_cycle;Max_cycle;Signal;HPM_P1;HPM_P2
2021/08/07 00:02:20;;;;;;;4.25;3.52;;;;;;;13.54;83.25;93973.55;1702267;82;21118;-55
2021/08/07 00:04:46;;;;;;;5.55;3.65;;;;;;;13.50;83.29;93973.00;1715449;83;21091;-55
2021/08/07 00:07:15;;;;;;;8.58;4.10;;;;;;;13.50;83.48;93975.77;1721289;83;21091;-55
2021/08/07 00:09:41;;;;;;;7.87;3.92;;;;;;;13.46;83.18;93981.49;1669328;83;21236;-56
2021/08/07 00:12:08;;;;;;;11.70;4.75;;;;;;;13.38;83.22;93975.48;1666605;85;21013;-56
2021/08/07 00:14:36;;;;;;;9.60;5.03;;;;;;;13.32;83.27;93976.81;1687876;83;21052;-56
2021/08/07 00:17:03;;;;;;;11.12;5.33;;;;;;;13.28;83.42;93981.02;1684618;83;21017;-56
2021/08/07 00:19:30;;;;;;;10.45;4.25;;;;;;;13.23;83.61;93974.81;1688810;83;21639;-56
2021/08/07 00:21:57;;;;;;;5.33;3.15;;;;;;;13.22;83.82;93982.92;1675140;83;21120;-55
2021/08/07 00:24:25;;;;;;;4.42;3.33;;;;;;;13.23;83.83;93981.08;1691154;82;21028;-55
2021/08/07 00:26:52;;;;;;;5.17;3.30;;;;;;;13.20;84.09;93966.86;1701476;83;21563;-56
2021/08/07 00:29:19;;;;;;;8.25;3.40;;;;;;;13.17;84.16;93974.73;1683147;83;21020;-55
2021/08/07 00:31:45;;;;;;;7.83;3.58;;;;;;;13.13;83.85;93973.41;1697114;83;21552;-55
2021/08/07 00:34:14;;;;;;;10.70;3.67;;;;;;;13.06;84.08;93966.92;1705460;83;21219;-56
2021/08/07 00:36:42;;;;;;;5.37;3.60;;;;;;;13.01;84.35;93966.97;1675675;83;21048;-57
2021/08/07 00:39:10;;;;;;;5.80;3.52;;;;;;;13.02;84.84;93974.62;1686731;83;20986;-55
2021/08/07 00:41:37;;;;;;;7.70;4.47;;;;;;;12.99;84.91;93977.73;1680169;83;20996;-55
2021/08/07 00:44:05;;;;;;;3.87;2.87;;;;;;;12.98;84.92;93978.98;1690367;83;21042;-55
2021/08/07 00:46:34;;;;;;;2.80;2.60;;;;;;;12.99;85.25;93983.87;1693138;83;21164;-55
2021/08/07 00:49:00;;;;;;;6.17;3.05;;;;;;;12.91;85.52;93980.72;1687898;83;21541;-57
2021/08/07 00:51:28;;;;;;;3.00;2.80;;;;;;;12.83;85.80;93987.11;1690691;83;21088;-56
2021/08/07 00:53:59;;;;;;;3.00;2.65;;;;;;;12.76;85.91;93984.77;1668872;84;21483;-56
2021/08/07 00:56:26;;;;;;;3.72;2.87;;;;;;;12.71;86.17;93986.19;1698970;84;21517;-56
2021/08/07 00:58:55;;;;;;;7.12;4.55;;;;;;;12.71;86.24;93988.95;1691157;83;21181;-55
2021/08/07 01:01:22;;;;;;;10.03;3.22;;;;;;;12.69;86.14;93989.30;1668506;83;20975;-55
2021/08/07 01:03:55;;;;;;;12.10;3.25;;;;;;;12.65;85.96;93991.48;1701004;82;21019;-55
2021/08/07 01:06:47;;;;;;;8.43;2.90;;;;;;;12.60;85.91;93995.69;1668932;84;21058;-55
2021/08/07 01:09:48;;;;;;;5.20;3.42;;;;;;;12.53;86.06;93999.45;1700152;83;21018;-56
2021/08/07 01:12:37;;;;;;;6.80;3.35;;;;;;;12.52;86.31;94007.59;1699238;83;21100;-55
2021/08/07 01:15:06;;;;;;;4.85;4.05;;;;;;;12.52;86.31;94008.97;1692365;83;21073;-56
2021/08/07 01:17:34;;;;;;;9.73;4.40;;;;;;;12.48;86.07;94007.00;1699036;83;20991;-56
2021/08/07 01:20:29;;;;;;;10.80;4.08;;;;;;;12.43;85.96;94011.08;1714121;83;21042;-55
2021/08/07 01:23:04;;;;;;;7.17;4.67;;;;;;;12.38;85.95;94004.22;1714262;82;20994;-55
2021/08/07 01:25:59;;;;;;;4.72;3.30;;;;;;;12.39;86.07;94007.12;1694586;83;21155;-55
2021/08/07 01:28:33;;;;;;;3.70;3.20;;;;;;;12.40;85.89;94015.53;1703142;83;20991;-55
2021/08/07 01:31:04;;;;;;;7.50;3.62;;;;;;;12.34;86.18;94014.69;1712805;83;21082;-56
2021/08/07 01:33:31;;;;;;;4.95;3.30;;;;;;;12.35;86.38;94007.94;1709661;83;20963;-56
2021/08/07 01:36:02;;;;;;;4.70;3.02;;;;;;;12.36;86.14;94008.08;1716845;83;20987;-56
2021/08/07 01:38:31;;;;;;;6.87;3.75;;;;;;;12.35;85.91;94015.43;1717705;83;21232;-56
2021/08/07 01:40:59;;;;;;;4.30;3.80;;;;;;;12.33;85.94;94013.16;1715879;83;21002;-56
2021/08/07 01:43:30;;;;;;;5.45;3.75;;;;;;;12.29;86.11;94013.95;1683752;85;21720;-55
2021/08/07 01:45:59;;;;;;;8.70;3.20;;;;;;;12.25;85.97;94003.73;1668820;84;20984;-55
2021/08/07 01:48:59;;;;;;;3.17;2.87;;;;;;;12.18;85.91;93999.98;1662300;84;20980;-56
2021/08/07 01:51:39;;;;;;;7.10;3.05;;;;;;;12.12;85.73;94003.25;1657497;84;21030;-55
2021/08/07 01:54:07;;;;;;;8.15;4.58;;;;;;;12.09;85.87;94011.09;1651957;85;21076;-55
2021/08/07 01:56:42;;;;;;;5.72;3.45;;;;;;;12.08;85.77;93999.92;1663521;84;21032;-55
2021/08/07 01:59:18;;;;;;;3.02;2.83;;;;;;;12.06;85.92;94005.16;1693569;82;21604;-56
2021/08/07 02:01:47;;;;;;;5.30;3.55;;;;;;;12.01;85.90;94002.29;1700025;83;21065;-56
2021/08/07 02:04:17;;;;;;;3.67;3.20;;;;;;;11.97;86.13;94008.01;1704955;82;21170;-56
2021/08/07 02:06:45;;;;;;;8.73;3.72;;;;;;;11.97;86.39;94009.98;1701090;83;21034;-56
2021/08/07 02:09:12;;;;;;;4.25;3.50;;;;;;;11.94;86.41;94008.94;1697115;83;21774;-56
2021/08/07 02:11:41;;;;;;;4.40;3.37;;;;;;;11.92;86.35;94013.41;1696776;83;21415;-56
2021/08/07 02:14:08;;;;;;;5.25;3.62;;;;;;;11.87;86.57;94016.20;1685547;83;21011;-55
2021/08/07 02:16:38;;;;;;;5.53;3.72;;;;;;;11.89;86.36;94016.48;1688550;83;21161;-56
2021/08/07 02:19:05;;;;;;;4.25;3.47;;;;;;;11.91;86.11;94015.39;1683852;83;20951;-56
2021/08/07 02:21:37;;;;;;;3.72;3.15;;;;;;;11.94;85.86;94010.31;1681149;83;20987;-56
2021/08/07 02:24:04;;;;;;;3.50;3.20;;;;;;;11.96;85.67;94016.14;1670811;84;21067;-56
2021/08/07 02:26:31;;;;;;;4.85;3.77;;;;;;;11.97;85.49;94026.53;1690214;82;21014;-56
2021/08/07 02:29:00;;;;;;;4.47;3.12;;;;;;;11.96;85.18;94020.27;1707780;82;21181;-57
2021/08/07 02:31:29;;;;;;;3.75;3.00;;;;;;;11.96;84.92;94020.27;1682723;83;21065;-56
2021/08/07 02:33:56;;;;;;;3.98;3.20;;;;;;;11.95;84.97;94027.02;1698785;83;21531;-56
2021/08/07 02:36:23;;;;;;;6.08;3.35;;;;;;;11.97;84.99;94034.20;1694419;83;21042;-55
2021/08/07 02:38:53;;;;;;;5.83;3.77;;;;;;;11.95;84.85;94032.53;1664319;85;21096;-55
2021/08/07 02:41:20;;;;;;;5.58;4.30;;;;;;;11.88;84.60;94035.64;1687511;83;21036;-55
2021/08/07 02:43:48;;;;;;;4.42;4.03;;;;;;;11.81;84.68;94039.38;1696844;83;21104;-56
2021/08/07 02:46:17;;;;;;;6.95;4.40;;;;;;;11.79;84.70;94039.86;1673719;84;21004;-56
2021/08/07 02:48:45;;;;;;;6.35;5.08;;;;;;;11.76;84.60;94038.66;1691736;84;21211;-56
2021/08/07 02:51:13;;;;;;;5.35;3.80;;;;;;;11.69;84.70;94040.41;1659925;83;21049;-55
2021/08/07 02:53:42;;;;;;;13.30;5.30;;;;;;;11.63;84.84;94043.05;1690307;84;21767;-55
2021/08/07 02:56:11;;;;;;;4.53;4.12;;;;;;;11.56;85.19;94036.49;1698442;83;20955;-56
2021/08/07 02:58:40;;;;;;;5.05;4.17;;;;;;;11.50;85.60;94043.86;1687726;84;21018;-56
2021/08/07 03:01:09;;;;;;;13.20;4.00;;;;;;;11.47;85.85;94037.14;1666457;83;21495;-56
2021/08/07 03:03:36;;;;;;;4.45;3.37;;;;;;;11.47;86.26;94033.02;1668501;84;21059;-56
2021/08/07 03:06:03;;;;;;;5.80;3.52;;;;;;;11.50;85.92;94044.49;1686208;83;21131;-56
2021/08/07 03:08:31;;;;;;;6.42;3.00;;;;;;;11.52;85.73;94048.28;1666675;83;21558;-55
2021/08/07 03:11:00;;;;;;;5.60;3.02;;;;;;;11.54;85.56;94046.45;1686951;84;21070;-55
2021/08/07 03:13:29;;;;;;;3.72;3.30;;;;;;;11.55;85.50;94047.34;1691410;84;21007;-56
2021/08/07 03:15:57;;;;;;;2.92;2.62;;;;;;;11.58;85.29;94051.96;1698345;84;21496;-55
2021/08/07 03:18:26;;;;;;;4.37;3.15;;;;;;;11.61;85.11;94055.16;1687587;84;21316;-57
2021/08/07 03:20:57;;;;;;;3.50;3.20;;;;;;;11.61;84.72;94053.77;1686835;84;21058;-56
2021/08/07 03:23:22;;;;;;;6.03;3.47;;;;;;;11.58;84.80;94069.88;1688884;83;21067;-55
2021/08/07 03:25:52;;;;;;;7.90;3.85;;;;;;;11.58;84.74;94064.36;1692224;83;21012;-56
2021/08/07 03:28:20;;;;;;;4.87;3.80;;;;;;;11.60;84.80;94069.38;1678548;83;21009;-55
2021/08/07 03:30:47;;;;;;;3.87;3.55;;;;;;;11.64;85.11;94072.72;1678747;83;21433;-55
2021/08/07 03:33:15;;;;;;;4.65;4.25;;;;;;;11.69;84.98;94074.22;1688431;83;21072;-55
2021/08/07 03:35:42;;;;;;;5.05;4.30;;;;;;;11.70;85.05;94069.48;1692442;83;21029;-56
2021/08/07 03:38:10;;;;;;;5.78;3.80;;;;;;;11.68;85.25;94082.97;1695608;83;21215;-55
2021/08/07 03:40:37;;;;;;;3.22;3.02;;;;;;;11.70;85.24;94081.25;1671917;83;21056;-56
2021/08/07 03:43:06;;;;;;;4.10;3.47;;;;;;;11.69;85.04;94083.11;1701632;83;21310;-56
2021/08/07 03:45:33;;;;;;;5.78;3.45;;;;;;;11.67;84.91;94093.21;1691078;83;21088;-55
2021/08/07 03:48:01;;;;;;;6.50;3.92;;;;;;;11.67;85.03;94097.34;1698414;83;20968;-55
2021/08/07 03:50:30;;;;;;;11.83;4.20;;;;;;;11.63;85.32;94091.25;1693482;83;21024;-56
2021/08/07 03:53:17;;;;;;;6.10;3.67;;;;;;;11.65;85.74;94094.90;1659444;85;21515;-56
2021/08/07 03:55:46;;;;;;;4.83;3.72;;;;;;;11.72;85.77;94099.45;1643758;85;20999;-55
2021/08/07 03:58:13;;;;;;;4.70;3.30;;;;;;;11.71;85.33;94100.67;1647393;85;21108;-55
2021/08/07 04:00:42;;;;;;;6.33;3.80;;;;;;;11.67;85.29;94103.45;1648110;84;21994;-54
2021/08/07 04:03:11;;;;;;;6.72;3.58;;;;;;;11.62;85.34;94099.98;1633163;86;21216;-55
2021/08/07 04:05:38;;;;;;;6.47;3.80;;;;;;;11.60;85.29;94107.95;1646438;86;21007;-55
2021/08/07 04:08:11;;;;;;;9.43;4.45;;;;;;;11.58;85.49;94098.80;1643153;85;21475;-55
2021/08/07 04:10:41;;;;;;;12.68;4.70;;;;;;;11.61;85.50;94099.23;1628986;88;20967;-55
2021/08/07 04:13:09;;;;;;;11.85;4.95;;;;;;;11.66;85.70;94101.33;1628479;88;21524;-55
2021/08/07 04:15:39;;;;;;;8.38;4.40;;;;;;;11.68;85.76;94092.61;1628481;88;21121;-55
2021/08/07 04:18:09;;;;;;;8.18;4.20;;;;;;;11.71;85.83;94096.55;1628519;88;20999;-55
2021/08/07 04:20:36;;;;;;;11.73;4.60;;;;;;;11.73;85.97;94090.58;1628575;88;21185;-55
2021/08/07 04:23:03;;;;;;;5.10;4.20;;;;;;;11.79;86.01;94090.84;1628202;88;21066;-56
2021/08/07 04:25:33;;;;;;;5.22;3.77;;;;;;;11.88;86.12;94086.63;1628365;88;21062;-55
2021/08/07 04:27:59;;;;;;;4.15;3.52;;;;;;;11.94;85.97;94087.48;1628586;88;21039;-57
2021/08/07 04:30:26;;;;;;;15.88;3.98;;;;;;;12.00;85.88;94095.88;1628599;88;21074;-55
2021/08/07 04:32:53;;;;;;;17.17;4.58;;;;;;;11.98;85.75;94079.82;1624042;88;21153;-55
2021/08/07 04:35:20;;;;;;;18.85;4.33;;;;;;;12.03;85.92;94096.30;1628388;88;20979;-56
2021/08/07 04:37:52;;;;;;;19.60;5.22;;;;;;;12.11;85.84;94084.44;1628563;88;21459;-56
2021/08/07 04:40:26;;;;;;;9.18;4.50;;;;;;;12.19;85.73;94089.75;1628564;88;21066;-55
2021/08/07 04:42:53;;;;;;;14.70;4.90;;;;;;;12.31;85.74;94092.87;1607622;87;20990;-56
2021/08/07 04:45:20;;;;;;;13.68;5.00;;;;;;;12.44;85.44;94097.48;1635140;86;21140;-55
2021/08/07 04:47:54;;;;;;;10.03;4.85;;;;;;;12.58;85.28;94089.23;1673497;84;21110;-55
2021/08/07 04:50:23;;;;;;;9.98;3.85;;;;;;;12.78;85.08;94090.70;1687326;84;21021;-55
2021/08/07 04:52:51;;;;;;;7.87;4.25;;;;;;;12.90;84.31;94089.62;1665645;84;21023;-56
2021/08/07 04:55:18;;;;;;;6.85;3.50;;;;;;;12.91;83.76;94095.92;1664456;84;21059;-55
2021/08/07 04:57:44;;;;;;;6.03;3.45;;;;;;;12.91;83.25;94094.54;1671143;84;21817;-56
2021/08/07 05:00:13;;;;;;;10.55;3.87;;;;;;;12.91;83.17;94096.66;1664309;84;21047;-56
2021/08/07 05:02:40;;;;;;;13.53;3.58;;;;;;;12.96;82.98;94098.03;1672086;84;20992;-55
2021/08/07 05:05:09;;;;;;;4.53;3.45;;;;;;;13.03;82.79;94104.53;1681833;85;21016;-56
2021/08/07 05:07:37;;;;;;;16.00;4.40;;;;;;;13.08;82.50;94096.34;1679262;85;21027;-55
2021/08/07 05:10:05;;;;;;;8.85;3.55;;;;;;;13.13;82.40;94097.08;1679639;84;21111;-56
2021/08/07 05:12:34;;;;;;;7.55;3.50;;;;;;;13.18;82.01;94099.76;1618838;87;21008;-56
2021/08/07 05:15:01;;;;;;;4.47;3.62;;;;;;;13.29;82.00;94102.06;1632598;87;21103;-56
2021/08/07 05:17:29;;;;;;;6.83;3.90;;;;;;;13.43;81.61;94101.91;1632365;85;21029;-55
2021/08/07 05:19:58;;;;;;;4.53;3.42;;;;;;;13.48;81.03;94106.75;1673707;84;21484;-58
2021/08/07 05:22:24;;;;;;;4.37;3.50;;;;;;;13.53;80.86;94105.45;1627255;87;21296;-57
2021/08/07 05:24:52;;;;;;;7.00;3.62;;;;;;;13.61;80.65;94109.95;1675935;84;21055;-56
2021/08/07 05:27:19;;;;;;;5.83;3.10;;;;;;;13.71;80.17;94119.02;1671674;84;20960;-59
2021/08/07 05:29:47;;;;;;;5.53;4.28;;;;;;;13.76;79.73;94125.84;1672876;85;21480;-55
2021/08/07 05:32:14;;;;;;;4.58;3.92;;;;;;;13.82;79.61;94123.30;1658666;85;21476;-55
2021/08/07 05:34:42;;;;;;;7.03;3.75;;;;;;;13.96;79.40;94128.66;1638166;86;21189;-58
2021/08/07 05:37:09;;;;;;;8.58;4.05;;;;;;;14.09;79.20;94135.36;1625928;87;20990;-56
2021/08/07 05:39:37;;;;;;;4.60;3.83;;;;;;;14.24;78.52;94138.84;1621591;87;21012;-55
2021/08/07 05:42:04;;;;;;;4.42;3.85;;;;;;;14.39;78.21;94138.77;1660471;85;21053;-56
2021/08/07 05:44:32;;;;;;;4.50;4.05;;;;;;;14.51;78.07;94139.17;1658559;85;20979;-57
2021/08/07 05:46:59;;;;;;;5.70;3.85;;;;;;;14.64;77.71;94136.77;1658895;85;21154;-56
2021/08/07 05:49:27;;;;;;;4.20;3.80;;;;;;;14.78;77.29;94146.99;1662499;85;21093;-56
2021/08/07 05:51:53;;;;;;;6.58;5.00;;;;;;;14.93;76.84;94144.88;1659966;85;21048;-56
2021/08/07 05:54:20;;;;;;;10.70;4.08;;;;;;;15.07;76.27;94152.33;1612365;87;21308;-58
2021/08/07 05:56:47;;;;;;;6.80;3.77;;;;;;;15.22;75.72;94155.71;1636295;86;20982;-57
2021/08/07 05:59:15;;;;;;;9.55;3.90;;;;;;;15.33;75.21;94160.64;1671334;85;21157;-55
2021/08/07 06:01:42;;;;;;;3.60;3.30;;;;;;;15.43;74.79;94152.27;1638122;87;20982;-57
2021/08/07 06:04:10;;;;;;;6.05;4.03;;;;;;;15.52;74.67;94157.64;1622679;88;21161;-57
2021/08/07 06:06:36;;;;;;;6.03;3.67;;;;;;;15.60;74.35;94162.86;1624615;88;21031;-56
2021/08/07 06:09:03;;;;;;;7.20;3.83;;;;;;;15.69;73.96;94174.52;1624874;88;21130;-56
2021/08/07 06:11:30;;;;;;;3.45;3.15;;;;;;;15.82;74.08;94174.10;1624617;88;21403;-57
2021/08/07 06:13:58;;;;;;;12.33;6.87;;;;;;;15.96;73.51;94172.58;1627332;87;21048;-57
2021/08/07 06:16:26;;;;;;;3.65;3.17;;;;;;;16.12;72.97;94179.47;1630317;88;21075;-56
2021/08/07 06:18:52;;;;;;;4.65;3.08;;;;;;;16.23;71.95;94190.00;1630318;88;21058;-58
2021/08/07 06:21:19;;;;;;;4.95;3.20;;;;;;;16.32;71.55;94181.45;1630700;88;21049;-58
2021/08/07 06:23:47;;;;;;;3.37;2.87;;;;;;;16.46;71.45;94177.16;1630149;88;21167;-56
2021/08/07 06:26:15;;;;;;;4.53;3.22;;;;;;;16.64;71.55;94178.73;1630125;88;21024;-56
2021/08/07 06:28:44;;;;;;;4.20;3.40;;;;;;;16.80;71.03;94184.98;1630129;88;20984;-56
2021/08/07 06:31:11;;;;;;;5.17;3.50;;;;;;;16.95;71.01;94177.94;1630324;88;21080;-57
2021/08/07 06:33:39;;;;;;;7.72;4.35;;;;;;;17.09;71.36;94179.00;1630415;88;21041;-56
2021/08/07 06:36:07;;;;;;;5.47;3.27;;;;;;;17.23;71.09;94175.21;1630350;88;21252;-56
2021/08/07 06:38:34;;;;;;;3.92;3.20;;;;;;;17.38;70.68;94174.38;1630470;88;21088;-56
2021/08/07 06:41:01;;;;;;;9.05;3.45;;;;;;;17.54;70.36;94171.63;1630358;88;20988;-56
2021/08/07 06:43:30;;;;;;;3.10;2.80;;;;;;;17.68;70.19;94168.45;1630304;87;21095;-57
2021/08/07 06:46:00;;;;;;;2.83;2.50;;;;;;;17.81;69.45;94172.88;1627905;86;21509;-56
2021/08/07 06:48:27;;;;;;;3.15;2.85;;;;;;;17.93;68.40;94172.36;1630455;88;21191;-57
2021/08/07 06:50:55;;;;;;;3.30;2.60;;;;;;;18.02;68.00;94167.16;1630195;88;21064;-57
2021/08/07 06:53:23;;;;;;;3.33;2.50;;;;;;;18.13;67.90;94168.52;1629970;88;21055;-56
2021/08/07 06:55:50;;;;;;;3.10;2.55;;;;;;;18.29;67.31;94169.91;1629843;88;21084;-55
2021/08/07 06:58:16;;;;;;;4.47;3.37;;;;;;;18.42;64.99;94175.05;1630233;88;21485;-57
2021/08/07 07:00:43;;;;;;;4.20;2.90;;;;;;;18.52;64.74;94180.48;1630176;88;21128;-56
2021/08/07 07:03:11;;;;;;;3.50;2.58;;;;;;;18.64;64.47;94172.83;1630170;88;21095;-56
2021/08/07 07:05:38;;;;;;;5.33;2.20;;;;;;;18.76;63.81;94165.92;1630147;88;21474;-56
2021/08/07 07:08:06;;;;;;;3.27;2.42;;;;;;;18.87;62.79;94165.23;1630474;88;21083;-56
2021/08/07 07:10:33;;;;;;;2.87;2.17;;;;;;;18.98;62.41;94167.97;1630221;88;21071;-56
2021/08/07 07:13:00;;;;;;;2.95;2.45;;;;;;;19.09;61.83;94162.97;1630365;88;21900;-56
2021/08/07 07:15:29;;;;;;;3.80;2.20;;;;;;;19.19;61.45;94173.98;1630281;88;20988;-57
2021/08/07 07:17:56;;;;;;;3.02;2.40;;;;;;;19.27;60.66;94165.94;1630369;88;21204;-56
2021/08/07 07:20:23;;;;;;;2.40;2.20;;;;;;;19.35;60.45;94166.89;1630225;88;21154;-59
2021/08/07 07:22:50;;;;;;;2.87;2.67;;;;;;;19.42;59.94;94164.95;1630220;88;21015;-59
2021/08/07 07:25:18;;;;;;;10.45;2.55;;;;;;;19.52;59.81;94173.11;1629952;88;21166;-56
2021/08/07 07:27:46;;;;;;;12.75;9.30;;;;;;;19.62;59.97;94167.34;1630328;88;21552;-56
2021/08/07 07:30:13;;;;;;;6.58;4.50;;;;;;;19.71;58.81;94170.45;1630401;88;21078;-57
2021/08/07 07:32:41;;;;;;;5.80;3.02;;;;;;;19.79;59.33;94170.75;1630336;88;21445;-56
2021/08/07 07:35:09;;;;;;;2.75;2.40;;;;;;;19.89;58.43;94171.19;1630369;88;21020;-56
2021/08/07 07:37:36;;;;;;;4.30;2.45;;;;;;;19.95;57.73;94159.31;1630569;88;21173;-56
2021/08/07 07:40:05;;;;;;;3.50;2.50;;;;;;;20.00;58.00;94163.45;1628143;88;20991;-56
2021/08/07 07:42:32;;;;;;;8.33;3.70;;;;;;;20.09;57.55;94161.00;1630054;88;21500;-57
2021/08/07 07:44:59;;;;;;;6.97;2.90;;;;;;;20.18;57.08;94158.62;1630006;86;21070;-55
2021/08/07 07:47:27;;;;;;;4.47;3.77;;;;;;;20.27;56.78;94161.05;1630709;88;21020;-56
2021/08/07 07:49:54;;;;;;;8.23;3.05;;;;;;;20.32;56.17;94163.02;1630197;88;21180;-57
2021/08/07 07:52:22;;;;;;;5.10;3.87;;;;;;;20.37;55.69;94163.63;1630394;87;21503;-57
2021/08/07 07:54:49;;;;;;;10.50;6.10;;;;;;;20.42;56.09;94161.41;1630215;87;20995;-56
2021/08/07 07:57:16;;;;;;;6.47;3.42;;;;;;;20.49;55.32;94162.20;1630308;88;21499;-55
2021/08/07 07:59:43;;;;;;;6.15;2.40;;;;;;;20.55;55.24;94163.66;1587476;88;21127;-56
2021/08/07 08:02:10;;;;;;;5.90;2.60;;;;;;;20.63;53.17;94156.21;1630739;88;21817;-56
2021/08/07 08:04:37;;;;;;;5.45;2.60;;;;;;;20.69;52.49;94153.33;1629788;88;21524;-56
2021/08/07 08:07:05;;;;;;;4.12;2.30;;;;;;;20.74;52.74;94150.47;1630266;88;21044;-57
2021/08/07 08:09:32;;;;;;;3.08;2.70;;;;;;;20.89;51.99;94145.88;1630498;88;21021;-57
2021/08/07 08:11:59;;;;;;;6.67;3.27;;;;;;;21.04;51.50;94145.54;1630481;88;20972;-57
2021/08/07 08:14:25;;;;;;;8.65;3.85;;;;;;;21.17;50.60;94140.03;1630134;88;21166;-58
2021/08/07 08:16:52;;;;;;;5.97;2.27;;;;;;;21.29;49.72;94135.02;1630307;88;21449;-57
2021/08/07 08:19:21;;;;;;;4.65;2.55;;;;;;;21.38;49.39;94142.38;1630166;88;21119;-57
2021/08/07 08:21:49;;;;;;;7.58;6.72;;;;;;;21.45;49.89;94138.22;1618665;88;20975;-58
2021/08/07 08:24:17;;;;;;;3.83;2.75;;;;;;;21.55;49.50;94137.92;1591819;89;21073;-57
2021/08/07 08:26:44;;;;;;;3.87;2.40;;;;;;;21.67;49.51;94133.03;1611889;89;21168;-57
2021/08/07 08:29:10;;;;;;;3.45;2.20;;;;;;;21.78;48.87;94130.06;1611925;89;20962;-56
2021/08/07 08:31:39;;;;;;;2.83;2.40;;;;;;;;;;1612020;88;20967;-57
2021/08/07 08:34:08;;;;;;;4.10;2.33;;;;;;;22.00;47.93;94137.34;1604116;88;21015;-56
2021/08/07 08:36:36;;;;;;;6.00;2.80;;;;;;;22.08;47.20;94135.52;1603386;88;21539;-57
2021/08/07 08:39:03;;;;;;;4.87;2.30;;;;;;;22.18;47.50;94131.02;1603560;89;21127;-56
2021/08/07 08:41:37;;;;;;;3.17;2.87;;;;;;;22.30;47.32;94136.52;1607142;88;21439;-56
2021/08/07 08:44:05;;;;;;;6.33;4.15;;;;;;;22.37;46.30;94126.71;1624490;88;21026;-57
2021/08/07 08:46:32;;;;;;;2.62;2.30;;;;;;;22.41;47.02;94125.13;1624464;88;21147;-56
2021/08/07 08:48:59;;;;;;;3.60;2.27;;;;;;;22.49;46.57;94133.66;1624555;88;21002;-57
2021/08/07 08:51:27;;;;;;;2.55;2.05;;;;;;;22.56;46.43;94133.77;1624692;88;21738;-56
2021/08/07 08:53:54;;;;;;;4.55;2.17;;;;;;;22.68;47.46;94139.24;1604706;88;21027;-57
2021/08/07 08:56:21;;;;;;;4.75;2.72;;;;;;;22.80;45.88;94134.93;1624391;88;21006;-57
2021/08/07 08:58:48;;;;;;;2.35;2.15;;;;;;;22.89;46.06;94130.30;1604540;88;21031;-57
2021/08/07 09:01:16;;;;;;;2.67;2.30;;;;;;;22.98;45.48;94128.43;1624616;88;21044;-61
2021/08/07 09:03:45;;;;;;;8.00;2.10;;;;;;;23.04;44.83;94127.66;1604185;88;21139;-58
2021/08/07 09:06:12;;;;;;;3.62;2.83;;;;;;;23.08;44.94;94127.33;1630535;88;20992;-58
2021/08/07 09:08:38;;;;;;;7.35;4.67;;;;;;;23.15;45.55;94129.49;1630725;88;21028;-57
2021/08/07 09:11:20;;;;;;;4.67;2.50;;;;;;;23.29;44.86;94128.94;1608607;88;21052;-57
2021/08/07 09:13:48;;;;;;;4.40;4.05;;;;;;;23.40;44.53;94134.28;1630588;88;20984;-57
2021/08/07 09:16:16;;;;;;;4.47;2.12;;;;;;;23.52;44.36;94131.33;1635889;87;21511;-57
2021/08/07 09:18:44;;;;;;;4.10;2.95;;;;;;;23.63;44.11;94129.68;1668572;84;21129;-56
2021/08/07 09:21:17;;;;;;;4.78;4.25;;;;;;;23.74;44.42;94129.39;1624772;85;21446;-56
2021/08/07 09:23:45;;;;;;;5.25;2.65;;;;;;;23.89;44.44;94133.02;1629853;87;21518;-56
2021/08/07 09:26:20;;;;;;;4.65;2.75;;;;;;;24.01;43.01;94128.74;1652062;86;21494;-57
2021/08/07 09:28:52;;;;;;;2.42;1.90;;;;;;;24.10;43.50;94135.30;1678281;85;21425;-57
2021/08/07 09:31:21;;;;;;;4.30;2.20;;;;;;;24.20;42.93;94136.30;1670244;84;20975;-58
2021/08/07 09:34:17;;;;;;;1.98;1.62;;;;;;;24.32;42.06;94139.58;1678971;84;20972;-57
2021/08/07 09:36:48;;;;;;;3.47;2.67;;;;;;;24.37;41.58;94140.10;1666269;85;21160;-57
2021/08/07 09:39:15;;;;;;;5.75;2.75;;;;;;;24.43;42.77;94144.92;1653035;85;21020;-57
2021/08/07 09:41:58;;;;;;;5.42;2.30;;;;;;;24.51;41.87;94146.51;1670879;84;21428;-57
2021/08/07 09:44:27;;;;;;;11.15;6.50;;;;;;;24.58;41.41;94144.39;1660668;85;20988;-60
2021/08/07 09:47:06;;;;;;;5.58;4.03;;;;;;;24.60;41.42;94146.66;1672225;84;21035;-56
2021/08/07 09:49:37;;;;;;;3.85;2.40;;;;;;;24.66;41.97;94162.73;1680764;85;21078;-58
2021/08/07 09:52:06;;;;;;;7.67;6.62;;;;;;;24.84;41.63;94149.05;1671360;84;21054;-57
2021/08/07 09:54:40;;;;;;;5.53;4.70;;;;;;;25.04;42.59;94155.26;1668215;84;21185;-58
2021/08/07 09:57:10;;;;;;;3.12;2.77;;;;;;;25.31;41.97;94157.97;1658902;84;20996;-57
2021/08/07 09:59:47;;;;;;;2.67;2.47;;;;;;;25.51;39.76;94150.05;1669041;85;20987;-58
2021/08/07 10:02:31;;;;;;;6.72;5.08;;;;;;;25.63;40.08;94152.64;1664015;84;21047;-57
2021/08/07 10:05:01;;;;;;;4.15;3.60;;;;;;;25.77;40.46;94152.55;1667329;84;21139;-58
2021/08/07 10:07:28;;;;;;;4.72;2.10;;;;;;;25.92;42.11;94152.63;1615886;88;21210;-57
2021/08/07 10:09:57;;;;;;;2.70;2.12;;;;;;;26.11;41.10;94151.70;1643356;84;21092;-60
2021/08/07 10:12:24;;;;;;;2.42;1.95;;;;;;;26.21;40.09;94156.89;1662028;84;21075;-58
2021/08/07 10:14:53;;;;;;;1.85;1.40;;;;;;;26.19;39.53;94156.71;1647260;85;21165;-60
2021/08/07 10:17:24;;;;;;;3.30;2.92;;;;;;;26.08;38.84;94153.50;1659470;85;21112;-61
2021/08/07 10:19:52;;;;;;;1.92;1.60;;;;;;;25.91;39.65;94157.52;1674377;85;21802;-58
2021/08/07 10:22:20;;;;;;;3.60;2.20;;;;;;;25.84;39.87;94163.11;1612660;87;21236;-57
2021/08/07 10:24:51;;;;;;;1.50;1.40;;;;;;;25.75;40.97;94155.19;1634416;86;21524;-57
2021/08/07 10:27:20;;;;;;;3.87;1.67;;;;;;;25.74;39.78;94149.45;1631179;87;21420;-56
2021/08/07 10:29:51;;;;;;;2.47;1.25;;;;;;;25.66;39.89;94152.25;1664872;84;21011;-58
2021/08/07 10:32:19;;;;;;;4.33;1.98;;;;;;;25.45;39.73;94150.22;1664938;84;21154;-59
2021/08/07 10:34:50;;;;;;;1.82;1.70;;;;;;;25.19;40.56;94151.91;1677794;84;21086;-57
2021/08/07 10:37:17;;;;;;;2.35;1.30;;;;;;;25.37;40.52;94150.09;1617217;87;21087;-57
2021/08/07 10:39:45;;;;;;;1.65;1.50;;;;;;;25.38;41.13;94150.19;1645717;86;21510;-58
2021/08/07 10:42:14;;;;;;;1.92;1.77;;;;;;;25.41;41.05;94153.29;1672848;84;20977;-56
2021/08/07 10:44:44;;;;;;;1.80;1.70;;;;;;;25.43;40.79;94159.12;1664241;84;21158;-56
2021/08/07 10:47:13;;;;;;;4.17;2.33;;;;;;;25.45;41.07;94159.34;1663965;84;21429;-56
2021/08/07 10:49:45;;;;;;;3.10;1.60;;;;;;;25.46;41.33;94150.98;1662435;84;21023;-59
2021/08/07 10:52:30;;;;;;;5.50;1.90;;;;;;;25.73;40.08;94152.17;1669433;84;21035;-56
2021/08/07 10:54:57;;;;;;;2.12;1.77;;;;;;;25.70;40.52;94158.94;1661204;84;20948;-57
2021/08/07 10:57:39;;;;;;;1.55;1.40;;;;;;;25.63;40.13;94161.09;1659755;85;21356;-57
2021/08/07 11:00:20;;;;;;;5.15;1.85;;;;;;;25.48;40.40;94156.81;1670512;85;21233;-57
2021/08/07 11:02:48;;;;;;;8.03;3.83;;;;;;;25.32;40.41;94162.28;1655383;85;21048;-56
2021/08/07 11:05:15;;;;;;;3.98;2.30;;;;;;;25.23;41.58;94157.92;1671845;84;21032;-57
2021/08/07 11:07:42;;;;;;;2.58;1.65;;;;;;;25.21;42.16;94160.55;1661425;84;21027;-56
2021/08/07 11:10:15;;;;;;;3.77;2.30;;;;;;;25.13;41.82;94162.53;1673189;85;21547;-57
2021/08/07 11:12:47;;;;;;;5.08;3.75;;;;;;;25.12;42.27;94165.92;1659436;85;21020;-57
2021/08/07 11:15:31;;;;;;;9.23;3.17;;;;;;;25.11;42.60;94165.83;1666813;84;21052;-58
2021/08/07 11:18:21;;;;;;;13.48;3.27;;;;;;;25.09;41.84;94164.95;1667048;85;21518;-58
2021/08/07 11:20:49;;;;;;;8.48;5.42;;;;;;;24.96;42.36;94174.92;1673898;84;21007;-57
2021/08/07 11:23:17;;;;;;;2.80;1.90;;;;;;;24.81;42.40;94173.45;1670149;84;21338;-56
2021/08/07 11:25:52;;;;;;;18.35;7.47;;;;;;;24.72;42.30;94173.20;1656788;84;22159;-58
2021/08/07 11:28:21;;;;;;;14.03;7.55;;;;;;;24.65;42.98;94187.31;1682654;84;21068;-58
2021/08/07 11:30:48;;;;;;;9.53;4.78;;;;;;;24.68;43.28;94184.03;1681343;84;21088;-58
2021/08/07 11:33:19;;;;;;;9.20;4.62;;;;;;;24.75;43.27;94184.75;1679650;84;21068;-58
2021/08/07 11:35:52;;;;;;;3.77;1.70;;;;;;;24.81;42.54;94189.56;1678122;85;21112;-57
2021/08/07 11:38:24;;;;;;;10.82;2.20;;;;;;;24.82;40.78;94184.03;1661416;84;20960;-57
2021/08/07 11:41:04;;;;;;;11.68;4.25;;;;;;;24.73;41.26;94188.77;1670136;84;20996;-56
2021/08/07 11:43:38;;;;;;;8.03;3.12;;;;;;;24.67;42.49;94193.14;1648184;86;21067;-57
2021/08/07 11:46:07;;;;;;;3.12;2.80;;;;;;;24.72;41.77;94194.30;1646303;86;21091;-58